Time;durP1;ratioP1;P1;durP2;ratioP2;P2;SDS_P1;SDS_P2;PMS_P1;PMS_P2;Temp;Humidity;BMP_temperature;BMP_pressure;BME280_temperature;BME280_humidity;BME280_pressure;Samples;Min_cycle;Max_cycle;Signal;HPM_P1;HPM_P2
2021/07/08 00:01:22;;;;;;;3.75;1.50;;;21.50;69.20;;;;;;4249045;27;20051;-75
2021/07/08 00:03:26;;;;;;;6.25;1.67;;;21.50;69.40;;;;;;4250457;27;20058;-74
2021/07/08 00:05:30;;;;;;;6.72;1.65;;;21.60;70.00;;;;;;4251515;27;20078;-74
2021/07/08 00:07:33;;;;;;;5.50;1.50;;;21.50;69.60;;;;;;4252283;27;20055;-74
2021/07/08 00:09:36;;;;;;;5.57;1.70;;;21.50;69.50;;;;;;4252042;27;20051;-73
2021/07/08 00:11:41;;;;;;;6.47;2.05;;;21.40;69.80;;;;;;4249346;27;20058;-75
2021/07/08 00:13:47;;;;;;;5.30;1.60;;;21.40;70.20;;;;;;4249108;27;20122;-74
2021/07/08 00:15:51;;;;;;;7.47;1.80;;;21.30;69.80;;;;;;4249101;27;20506;-74
2021/07/08 00:17:54;;;;;;;7.13;1.67;;;21.40;69.40;;;;;;4248663;27;20051;-75
2021/07/08 00:19:57;;;;;;;5.90;1.50;;;21.30;69.40;;;;;;4249037;27;20055;-75
2021/07/08 00:22:01;;;;;;;6.18;1.52;;;21.30;70.10;;;;;;4249797;27;20057;-73
2021/07/08 00:24:05;;;;;;;7.93;1.80;;;21.20;70.60;;;;;;4251985;27;20251;-76
2021/07/08 00:26:09;;;;;;;4.55;1.55;;;21.30;71.00;;;;;;4253194;27;20519;-73
2021/07/08 00:28:15;;;;;;;5.03;1.73;;;21.30;71.20;;;;;;4252807;27;20050;-75
2021/07/08 00:30:19;;;;;;;2.63;1.40;;;21.30;71.20;;;;;;4251949;27;20410;-74
2021/07/08 00:32:22;;;;;;;5.13;1.58;;;21.20;71.30;;;;;;4251165;27;20065;-74
2021/07/08 00:34:25;;;;;;;5.85;1.90;;;21.20;71.00;;;;;;4248381;27;20244;-75
2021/07/08 00:36:28;;;;;;;7.82;1.42;;;21.30;71.60;;;;;;4248577;27;20403;-75
2021/07/08 00:38:31;;;;;;;6.60;1.52;;;21.30;71.00;;;;;;4230333;28;20093;-74
2021/07/08 00:40:35;;;;;;;7.20;1.60;;;21.30;70.90;;;;;;4248435;27;20055;-74
2021/07/08 00:42:39;;;;;;;5.73;1.80;;;21.30;71.10;;;;;;4248730;27;20412;-75
2021/07/08 00:44:43;;;;;;;6.03;2.20;;;21.30;71.60;;;;;;4246570;27;20403;-74
2021/07/08 00:46:46;;;;;;;6.10;1.80;;;21.10;72.60;;;;;;4248030;27;20062;-73
2021/07/08 00:48:49;;;;;;;5.85;1.95;;;21.10;71.40;;;;;;4248480;27;20527;-74
2021/07/08 00:50:53;;;;;;;5.70;1.90;;;21.20;71.80;;;;;;4248918;27;20043;-76
2021/07/08 00:52:56;;;;;;;5.43;1.75;;;21.10;71.90;;;;;;4249430;27;20053;-72
2021/07/08 00:54:59;;;;;;;4.90;1.90;;;21.10;71.60;;;;;;4248875;27;20053;-74
2021/07/08 00:57:03;;;;;;;6.68;1.90;;;21.10;72.50;;;;;;4249833;27;20047;-76
2021/07/08 00:59:08;;;;;;;8.18;1.80;;;21.10;72.50;;;;;;4248796;27;20054;-72
2021/07/08 01:01:13;;;;;;;6.38;1.75;;;21.10;72.40;;;;;;4251174;27;20055;-75
2021/07/08 01:03:17;;;;;;;4.05;1.60;;;21.00;72.90;;;;;;4233258;27;20063;-74
2021/07/08 01:05:22;;;;;;;5.10;1.70;;;21.00;72.60;;;;;;4251766;27;20061;-73
2021/07/08 01:07:25;;;;;;;3.05;1.70;;;21.00;72.90;;;;;;4249532;27;20468;-74
2021/07/08 01:09:28;;;;;;;8.70;1.70;;;20.90;73.60;;;;;;4248532;27;20082;-73
2021/07/08 01:11:31;;;;;;;8.57;1.90;;;20.90;73.60;;;;;;4248258;27;20130;-73
2021/07/08 01:13:34;;;;;;;4.38;1.60;;;20.90;72.90;;;;;;4249683;27;20081;-74
2021/07/08 01:15:37;;;;;;;5.90;1.90;;;21.00;73.50;;;;;;4248074;27;20054;-73
2021/07/08 01:17:43;;;;;;;5.53;1.90;;;21.00;73.70;;;;;;4249112;27;20054;-74
2021/07/08 01:19:47;;;;;;;3.92;1.65;;;20.90;73.20;;;;;;4247986;27;20059;-75
2021/07/08 01:21:51;;;;;;;6.35;1.90;;;20.90;74.50;;;;;;4247450;27;20057;-74
2021/07/08 01:23:56;;;;;;;5.28;2.08;;;20.90;74.00;;;;;;4247286;27;20051;-73
2021/07/08 01:25:59;;;;;;;6.10;1.70;;;20.90;75.00;;;;;;4247768;27;20137;-73
2021/07/08 01:28:05;;;;;;;6.93;1.80;;;20.80;75.10;;;;;;4229224;28;20047;-73
2021/07/08 01:30:10;;;;;;;5.15;1.83;;;20.70;74.60;;;;;;4247798;27;20057;-73
2021/07/08 01:32:14;;;;;;;19.05;1.98;;;20.70;75.30;;;;;;4248369;27;20047;-71
2021/07/08 01:34:17;;;;;;;4.88;1.80;;;20.60;75.60;;;;;;4248368;27;20051;-72
2021/07/08 01:36:21;;;;;;;7.00;2.10;;;20.60;75.20;;;;;;4247628;27;20080;-73
2021/07/08 01:38:25;;;;;;;5.82;1.95;;;20.70;75.20;;;;;;4246874;27;20058;-73
2021/07/08 01:40:28;;;;;;;10.95;1.90;;;20.60;75.80;;;;;;4247398;27;20062;-74
2021/07/08 01:42:31;;;;;;;5.32;1.90;;;20.70;75.50;;;;;;4247752;27;20057;-74
2021/07/08 01:44:35;;;;;;;8.38;2.40;;;20.70;75.30;;;;;;4247332;27;20733;-75
2021/07/08 01:46:38;;;;;;;5.70;1.55;;;20.60;76.30;;;;;;4247636;27;20059;-74
2021/07/08 01:48:42;;;;;;;6.45;2.28;;;20.50;76.30;;;;;;4247014;27;20040;-73
2021/07/08 01:50:45;;;;;;;6.85;1.85;;;20.50;76.20;;;;;;4246993;27;20531;-72
2021/07/08 01:52:49;;;;;;;5.60;1.80;;;20.60;76.10;;;;;;4246691;27;20496;-73
2021/07/08 01:54:54;;;;;;;4.70;1.90;;;20.70;76.80;;;;;;4245747;27;20052;-72
2021/07/08 01:56:57;;;;;;;4.55;1.90;;;20.60;76.80;;;;;;4246564;27;20385;-73
2021/07/08 01:59:00;;;;;;;3.90;1.98;;;20.50;77.70;;;;;;4246483;27;20394;-74
2021/07/08 02:01:03;;;;;;;4.88;1.80;;;20.50;77.30;;;;;;4246765;27;20440;-73
2021/07/08 02:03:06;;;;;;;7.10;2.83;;;20.50;76.30;;;;;;4246542;27;20537;-72
2021/07/08 02:05:10;;;;;;;7.55;1.88;;;20.60;76.50;;;;;;4246327;27;20053;-73
2021/07/08 02:07:13;;;;;;;6.88;1.85;;;20.50;77.20;;;;;;4246591;27;20051;-73
2021/07/08 02:09:16;;;;;;;5.65;1.90;;;20.60;76.90;;;;;;4246320;27;20058;-72
2021/07/08 02:11:21;;;;;;;3.80;1.80;;;20.50;78.20;;;;;;4246252;27;20083;-72
2021/07/08 02:13:24;;;;;;;8.77;1.88;;;20.50;77.90;;;;;;4246403;27;20057;-72
2021/07/08 02:15:28;;;;;;;4.22;1.67;;;20.50;77.80;;;;;;4245864;27;20061;-74
2021/07/08 02:17:32;;;;;;;4.50;1.63;;;20.50;78.00;;;;;;4245932;27;20051;-73
2021/07/08 02:19:35;;;;;;;7.05;2.00;;;20.50;78.30;;;;;;4246344;27;20438;-73
2021/07/08 02:21:38;;;;;;;5.30;2.10;;;20.50;79.20;;;;;;4247171;27;20050;-74
2021/07/08 02:23:41;;;;;;;8.25;2.00;;;20.50;78.40;;;;;;4246878;27;20058;-74
2021/07/08 02:25:44;;;;;;;7.03;1.98;;;20.40;78.80;;;;;;4228309;28;20056;-72
2021/07/08 02:27:49;;;;;;;3.88;1.73;;;20.30;79.50;;;;;;4246375;27;20494;-72
2021/07/08 02:29:52;;;;;;;8.65;2.33;;;20.40;79.50;;;;;;4246097;27;20070;-74
2021/07/08 02:31:55;;;;;;;4.50;1.70;;;20.40;79.10;;;;;;4246005;27;20527;-73
2021/07/08 02:33:58;;;;;;;4.85;1.90;;;20.40;78.80;;;;;;4246853;27;20381;-73
2021/07/08 02:36:01;;;;;;;8.32;2.15;;;20.40;79.20;;;;;;4247168;27;20487;-75
2021/07/08 02:38:05;;;;;;;5.43;2.17;;;20.40;79.30;;;;;;4246865;27;20534;-74
2021/07/08 02:40:11;;;;;;;7.68;1.98;;;20.40;80.10;;;;;;4245930;27;20051;-73
2021/07/08 02:42:14;;;;;;;6.75;1.90;;;20.30;79.90;;;;;;4246004;27;20496;-73
2021/07/08 02:44:18;;;;;;;5.07;1.75;;;20.40;79.00;;;;;;4245681;27;20061;-72
2021/07/08 02:46:21;;;;;;;4.72;2.30;;;20.30;79.40;;;;;;4246053;27;20054;-74
2021/07/08 02:48:25;;;;;;;3.35;1.65;;;20.40;79.00;;;;;;4245665;27;20541;-73
2021/07/08 02:50:30;;;;;;;2.75;1.55;;;20.40;78.70;;;;;;4245896;27;20055;-71
2021/07/08 02:52:33;;;;;;;4.15;2.13;;;20.40;78.70;;;;;;4227538;28;20052;-74
2021/07/08 02:54:37;;;;;;;9.85;2.15;;;20.40;79.70;;;;;;4245275;27;20499;-73
2021/07/08 02:56:40;;;;;;;7.68;2.15;;;20.40;78.60;;;;;;4245569;27;20047;-72
2021/07/08 02:58:43;;;;;;;9.23;1.92;;;20.40;78.30;;;;;;4245517;27;20051;-73
2021/07/08 03:00:48;;;;;;;2.92;1.80;;;20.40;78.80;;;;;;4245838;27;20050;-72
2021/07/08 03:02:52;;;;;;;8.65;2.25;;;20.40;79.50;;;;;;4245400;27;20067;-73
2021/07/08 03:04:55;;;;;;;4.28;2.20;;;20.30;79.80;;;;;;4245760;27;20381;-72
2021/07/08 03:06:58;;;;;;;6.43;2.78;;;20.20;79.70;;;;;;4244999;27;20073;-74
2021/07/08 03:09:02;;;;;;;4.78;2.47;;;20.30;79.70;;;;;;4245506;27;20051;-74
2021/07/08 03:11:05;;;;;;;6.43;2.47;;;20.30;79.90;;;;;;4245401;27;20116;-75
2021/07/08 03:13:12;;;;;;;6.47;2.53;;;20.20;79.70;;;;;;4245403;27;20061;-74
2021/07/08 03:15:16;;;;;;;8.65;2.83;;;20.30;79.80;;;;;;4245713;27;20047;-73
2021/07/08 03:17:20;;;;;;;10.48;3.22;;;20.20;81.60;;;;;;4245761;27;20055;-72
2021/07/08 03:19:24;;;;;;;12.63;2.80;;;20.10;81.10;;;;;;4245459;27;20437;-71
2021/07/08 03:21:27;;;;;;;7.25;2.33;;;20.10;81.50;;;;;;4245546;28;20057;-74
2021/07/08 03:23:31;;;;;;;6.78;2.45;;;20.10;81.50;;;;;;4245713;28;20061;-74
2021/07/08 03:25:34;;;;;;;9.82;2.13;;;20.00;81.80;;;;;;4245692;28;20062;-73
2021/07/08 03:27:37;;;;;;;10.13;2.45;;;20.10;81.10;;;;;;4245616;28;20054;-74
2021/07/08 03:29:40;;;;;;;6.63;2.33;;;20.00;82.80;;;;;;4245630;28;20408;-72
2021/07/08 03:31:43;;;;;;;5.18;2.20;;;20.00;81.80;;;;;;4245606;28;20055;-72
2021/07/08 03:33:48;;;;;;;6.63;2.70;;;20.00;82.40;;;;;;4245668;28;20047;-72
2021/07/08 03:35:51;;;;;;;4.43;2.00;;;20.00;83.00;;;;;;4245369;28;20478;-73
2021/07/08 03:37:54;;;;;;;4.85;2.38;;;19.90;83.50;;;;;;4245360;28;20063;-74
2021/07/08 03:39:57;;;;;;;3.45;2.08;;;19.80;83.10;;;;;;4246772;28;20554;-72
2021/07/08 03:42:00;;;;;;;4.60;2.47;;;19.80;84.00;;;;;;4246421;28;20055;-73
2021/07/08 03:44:03;;;;;;;8.00;2.58;;;19.70;84.30;;;;;;4245809;28;20052;-73
2021/07/08 03:46:06;;;;;;;5.95;2.30;;;19.80;83.70;;;;;;4245283;28;20057;-73
2021/07/08 03:48:09;;;;;;;7.00;2.60;;;19.70;84.70;;;;;;4244804;28;20063;-73
2021/07/08 03:50:14;;;;;;;7.15;2.30;;;19.60;85.40;;;;;;4245006;28;20500;-74
2021/07/08 03:52:17;;;;;;;5.03;1.85;;;19.60;86.40;;;;;;4245276;28;20056;-72
2021/07/08 03:54:20;;;;;;;7.60;2.80;;;19.60;85.70;;;;;;4245693;28;20488;-72
2021/07/08 03:56:23;;;;;;;7.90;4.45;;;19.60;84.90;;;;;;4245660;28;20070;-73
2021/07/08 03:58:26;;;;;;;9.02;2.90;;;19.60;86.00;;;;;;4245752;28;20053;-75
2021/07/08 04:00:32;;;;;;;6.45;2.13;;;19.60;86.10;;;;;;4245235;28;20388;-72
2021/07/08 04:02:35;;;;;;;6.63;2.40;;;19.60;85.60;;;;;;4227029;28;20455;-72
2021/07/08 04:04:38;;;;;;;5.05;2.58;;;19.60;86.90;;;;;;4249978;28;20055;-73
2021/07/08 04:06:43;;;;;;;7.05;2.60;;;19.60;86.00;;;;;;4252359;28;20047;-73
2021/07/08 04:08:45;;;;;;;8.10;2.70;;;19.70;85.80;;;;;;4251841;28;20067;-72
2021/07/08 04:10:48;;;;;;;6.47;2.60;;;19.60;85.90;;;;;;4250267;28;20059;-73
2021/07/08 04:12:52;;;;;;;6.35;2.88;;;19.60;87.30;;;;;;4251198;28;20070;-73
2021/07/08 04:14:55;;;;;;;3.73;2.37;;;19.50;87.70;;;;;;4248312;28;20061;-73
2021/07/08 04:16:59;;;;;;;4.68;2.22;;;19.50;87.40;;;;;;4245900;28;20059;-73
2021/07/08 04:19:03;;;;;;;8.23;2.90;;;19.50;86.90;;;;;;4247253;27;20496;-73
2021/07/08 04:21:06;;;;;;;3.75;2.20;;;19.50;86.70;;;;;;4230642;28;20526;-73
2021/07/08 04:23:12;;;;;;;7.53;2.50;;;19.50;86.30;;;;;;4248933;27;20506;-73
2021/07/08 04:25:15;;;;;;;8.77;2.53;;;19.60;86.40;;;;;;4249555;27;20535;-73
2021/07/08 04:27:19;;;;;;;6.63;2.45;;;19.50;87.30;;;;;;4249472;27;20405;-73
2021/07/08 04:29:21;;;;;;;3.78;2.42;;;19.60;87.20;;;;;;4249117;27;20055;-72
2021/07/08 04:31:24;;;;;;;7.55;2.90;;;19.60;85.90;;;;;;4249005;27;20062;-73
2021/07/08 04:33:28;;;;;;;5.45;2.38;;;19.50;87.70;;;;;;4249584;27;20051;-73
2021/07/08 04:35:33;;;;;;;9.05;3.30;;;19.60;87.60;;;;;;4249521;27;20058;-73
2021/07/08 04:37:41;;;;;;;6.60;2.85;;;19.60;87.10;;;;;;4249426;27;20074;-72
2021/07/08 04:39:45;;;;;;;11.07;2.55;;;19.60;87.30;;;;;;4250067;27;20497;-73
2021/07/08 04:41:48;;;;;;;6.25;2.20;;;19.60;88.00;;;;;;4251521;27;20051;-73
2021/07/08 04:43:51;;;;;;;13.18;2.75;;;19.60;87.40;;;;;;4251759;27;20063;-73
2021/07/08 04:45:55;;;;;;;5.78;2.30;;;19.60;88.20;;;;;;4252408;27;20055;-71
2021/07/08 04:47:58;;;;;;;8.40;2.40;;;19.60;88.40;;;;;;4251055;27;20059;-71
2021/07/08 04:50:02;;;;;;;5.88;2.40;;;19.60;87.60;;;;;;4249553;27;20067;-72
2021/07/08 04:52:07;;;;;;;9.17;2.80;;;19.60;87.80;;;;;;4248370;27;20057;-73
2021/07/08 04:54:10;;;;;;;9.05;2.72;;;19.60;88.00;;;;;;4248058;27;20528;-74
2021/07/08 04:56:14;;;;;;;13.13;3.20;;;19.60;88.30;;;;;;4247986;27;20047;-73
2021/07/08 04:58:17;;;;;;;4.70;2.47;;;19.60;87.50;;;;;;4249234;27;20495;-72
2021/07/08 05:00:21;;;;;;;6.43;2.60;;;19.70;87.50;;;;;;4249588;27;20070;-72
2021/07/08 05:02:25;;;;;;;9.07;3.20;;;19.70;87.20;;;;;;4248508;27;20055;-71
2021/07/08 05:04:28;;;;;;;5.22;2.53;;;19.70;87.20;;;;;;4248195;27;20051;-72
2021/07/08 05:06:31;;;;;;;6.10;2.80;;;19.70;86.60;;;;;;4247827;27;20545;-72
2021/07/08 05:08:34;;;;;;;6.75;2.90;;;19.80;86.20;;;;;;4247932;27;20518;-74
2021/07/08 05:10:37;;;;;;;8.30;3.00;;;19.80;86.30;;;;;;4249149;27;20051;-72
2021/07/08 05:12:41;;;;;;;6.32;2.78;;;19.90;86.80;;;;;;4248020;27;20055;-72
2021/07/08 05:14:46;;;;;;;6.93;3.15;;;19.90;87.60;;;;;;4229487;27;20530;-72
2021/07/08 05:16:49;;;;;;;6.53;2.78;;;19.80;87.90;;;;;;4247969;27;20055;-71
2021/07/08 05:18:52;;;;;;;5.10;2.80;;;19.90;87.40;;;;;;4247505;27;20051;-72
2021/07/08 05:20:56;;;;;;;13.90;3.40;;;19.90;88.20;;;;;;4247389;27;20051;-74
2021/07/08 05:23:04;;;;;;;5.93;3.00;;;19.90;88.00;;;;;;4247357;27;20055;-74
2021/07/08 05:25:10;;;;;;;9.88;2.80;;;20.00;88.20;;;;;;4228800;27;20051;-72
2021/07/08 05:27:16;;;;;;;8.90;2.95;;;20.10;87.40;;;;;;4247199;27;20055;-72
2021/07/08 05:29:22;;;;;;;8.32;2.97;;;20.00;87.50;;;;;;4246930;27;20051;-71
2021/07/08 05:31:25;;;;;;;8.70;3.10;;;20.00;88.70;;;;;;4246473;27;20047;-71
2021/07/08 05:33:28;;;;;;;6.57;3.08;;;20.00;88.70;;;;;;4247248;27;20051;-72
2021/07/08 05:35:31;;;;;;;7.65;2.75;;;20.10;89.30;;;;;;4229273;27;20127;-72
2021/07/08 05:37:35;;;;;;;6.32;2.40;;;20.10;88.50;;;;;;4247145;27;20507;-72
2021/07/08 05:39:38;;;;;;;4.75;2.70;;;20.10;88.40;;;;;;4247109;27;20061;-72
2021/07/08 05:41:41;;;;;;;5.55;2.80;;;20.30;87.70;;;;;;4247584;27;20043;-71
2021/07/08 05:43:44;;;;;;;15.82;2.90;;;20.30;88.90;;;;;;4247363;27;20055;-73
2021/07/08 05:45:48;;;;;;;8.27;2.95;;;20.10;89.00;;;;;;4247960;27;20059;-74
2021/07/08 05:47:51;;;;;;;11.45;3.15;;;20.20;88.50;;;;;;4248203;27;20043;-74
2021/07/08 05:49:55;;;;;;;10.57;2.80;;;20.00;89.90;;;;;;4249724;27;20047;-72
2021/07/08 05:51:59;;;;;;;11.57;3.28;;;20.30;89.30;;;;;;4249086;27;20131;-72
2021/07/08 05:54:02;;;;;;;13.25;3.25;;;20.20;90.20;;;;;;4249252;27;20426;-72
2021/07/08 05:56:05;;;;;;;5.82;2.70;;;20.20;90.40;;;;;;4246663;27;20043;-72
2021/07/08 05:58:08;;;;;;;7.07;2.72;;;20.30;90.40;;;;;;4246351;27;20065;-72
2021/07/08 06:00:11;;;;;;;6.78;2.75;;;20.30;90.60;;;;;;4246558;27;20089;-73
2021/07/08 06:02:16;;;;;;;11.63;2.80;;;20.50;90.50;;;;;;4246404;27;20051;-71
2021/07/08 06:04:19;;;;;;;7.47;2.72;;;20.60;90.00;;;;;;4228158;28;20058;-72
2021/07/08 06:06:22;;;;;;;11.50;2.55;;;20.70;90.20;;;;;;4246244;27;20047;-72
2021/07/08 06:08:25;;;;;;;8.50;3.42;;;20.90;89.60;;;;;;4246614;27;20507;-72
2021/07/08 06:10:28;;;;;;;7.10;3.97;;;21.10;89.70;;;;;;4246449;27;20047;-71
2021/07/08 06:12:31;;;;;;;6.18;3.13;;;21.00;90.20;;;;;;4246583;27;20135;-72
2021/07/08 06:14:34;;;;;;;7.07;2.80;;;21.10;89.00;;;;;;4246102;27;20054;-72
2021/07/08 06:16:37;;;;;;;17.45;3.28;;;21.20;88.80;;;;;;4246089;27;20047;-71
2021/07/08 06:18:42;;;;;;;6.38;3.15;;;21.40;88.70;;;;;;4246038;27;20063;-71
2021/07/08 06:20:46;;;;;;;6.97;2.85;;;21.40;88.60;;;;;;4246109;27;20058;-74
2021/07/08 06:22:49;;;;;;;7.47;2.90;;;21.50;87.80;;;;;;4246200;27;20078;-73
2021/07/08 06:24:53;;;;;;;11.05;3.08;;;21.60;87.30;;;;;;4246170;27;20061;-72
2021/07/08 06:26:56;;;;;;;5.68;3.15;;;21.80;87.50;;;;;;4245972;27;20384;-72
2021/07/08 06:28:59;;;;;;;5.05;2.50;;;22.00;87.30;;;;;;4246039;27;20407;-72
2021/07/08 06:31:02;;;;;;;10.32;2.97;;;22.10;86.80;;;;;;4246148;27;20059;-71
2021/07/08 06:33:05;;;;;;;8.20;3.22;;;22.20;85.80;;;;;;4246108;27;20412;-72
2021/07/08 06:35:12;;;;;;;5.85;2.83;;;22.20;85.40;;;;;;4246486;27;20053;-72
2021/07/08 06:37:16;;;;;;;9.02;3.00;;;22.30;85.70;;;;;;4246595;27;20115;-72
2021/07/08 06:39:19;;;;;;;8.27;2.85;;;22.20;85.40;;;;;;4246565;27;20070;-73
2021/07/08 06:41:22;;;;;;;13.90;3.08;;;22.30;85.20;;;;;;4247371;27;20124;-73
2021/07/08 06:43:25;;;;;;;12.10;2.88;;;22.20;85.50;;;;;;4248670;27;20298;-71
2021/07/08 06:45:30;;;;;;;5.72;2.70;;;22.30;85.30;;;;;;4249483;27;20062;-72
2021/07/08 06:47:43;;;;;;;8.68;2.47;;;22.30;85.80;;;;;;4250751;27;20396;-71
2021/07/08 06:49:46;;;;;;;6.55;2.40;;;22.30;85.20;;;;;;4250913;27;20057;-72
2021/07/08 06:51:51;;;;;;;11.15;2.40;;;22.20;85.10;;;;;;4250750;27;20051;-73
2021/07/08 06:53:55;;;;;;;7.85;2.80;;;22.20;85.60;;;;;;4228654;28;20051;-72
2021/07/08 06:55:58;;;;;;;6.15;2.80;;;22.30;85.90;;;;;;4246315;27;20051;-72
2021/07/08 06:58:01;;;;;;;7.25;2.30;;;22.30;85.90;;;;;;4247962;27;20067;-71
2021/07/08 07:00:05;;;;;;;7.40;2.42;;;22.40;85.50;;;;;;4248408;27;20051;-72
2021/07/08 07:02:08;;;;;;;5.60;2.42;;;22.30;85.80;;;;;;4248355;27;20053;-72
2021/07/08 07:04:11;;;;;;;12.65;2.13;;;22.40;85.40;;;;;;4247343;27;20051;-72
2021/07/08 07:06:15;;;;;;;9.20;2.42;;;22.50;84.60;;;;;;4246936;27;20047;-72
2021/07/08 07:08:24;;;;;;;15.65;3.00;;;22.20;84.60;;;;;;4229768;28;20070;-72
2021/07/08 07:10:28;;;;;;;11.10;3.05;;;22.20;84.70;;;;;;4248192;27;20051;-73
2021/07/08 07:12:31;;;;;;;11.65;3.05;;;22.30;84.60;;;;;;4248352;27;20741;-71
2021/07/08 07:14:34;;;;;;;11.43;2.78;;;22.20;84.70;;;;;;4246020;27;20055;-72
2021/07/08 07:16:37;;;;;;;11.20;2.60;;;22.20;85.80;;;;;;4246079;27;20655;-71
2021/07/08 07:18:41;;;;;;;9.30;2.97;;;22.30;85.20;;;;;;4246421;27;20058;-71
2021/07/08 07:20:44;;;;;;;7.32;2.80;;;22.00;85.20;;;;;;4246326;27;20408;-71
2021/07/08 07:22:48;;;;;;;8.27;2.53;;;22.20;85.20;;;;;;4227530;28;20059;-74
2021/07/08 07:24:53;;;;;;;10.55;2.45;;;22.20;84.90;;;;;;4245378;28;20059;-72
2021/07/08 07:26:56;;;;;;;7.70;3.05;;;22.30;84.60;;;;;;4245561;28;20498;-72
2021/07/08 07:28:59;;;;;;;10.65;2.95;;;22.20;84.60;;;;;;4245547;28;20057;-72
2021/07/08 07:31:02;;;;;;;9.43;3.05;;;22.30;84.60;;;;;;4245156;28;20067;-72
2021/07/08 07:33:05;;;;;;;10.40;2.65;;;22.20;85.10;;;;;;4245427;28;20055;-72
2021/07/08 07:35:10;;;;;;;5.82;2.72;;;22.20;85.70;;;;;;4246113;28;20402;-76
2021/07/08 07:37:13;;;;;;;5.30;2.85;;;21.90;85.90;;;;;;4246184;28;20043;-72
2021/07/08 07:39:16;;;;;;;6.50;2.85;;;21.80;85.90;;;;;;4245542;28;20059;-74
2021/07/08 07:41:20;;;;;;;7.22;2.90;;;22.00;85.90;;;;;;4245378;28;20051;-72
2021/07/08 07:43:23;;;;;;;7.80;3.13;;;22.20;85.50;;;;;;4245294;28;20051;-72
2021/07/08 07:45:26;;;;;;;10.93;3.20;;;22.30;85.10;;;;;;4245420;28;20051;-72
2021/07/08 07:47:30;;;;;;;8.48;3.33;;;22.30;85.40;;;;;;4244227;28;20058;-73
2021/07/08 07:49:33;;;;;;;8.18;3.50;;;22.30;85.30;;;;;;4245390;28;20055;-73
2021/07/08 07:51:36;;;;;;;7.22;3.30;;;22.50;87.20;;;;;;4245236;28;20058;-74
2021/07/08 07:53:39;;;;;;;11.20;2.45;;;22.60;85.40;;;;;;4246961;27;20055;-73
2021/07/08 07:55:42;;;;;;;6.55;2.58;;;22.60;86.30;;;;;;4249073;27;20058;-74
2021/07/08 07:57:47;;;;;;;12.32;3.00;;;22.80;85.80;;;;;;4248827;27;20070;-74
2021/07/08 07:59:50;;;;;;;;;;;22.70;84.60;;;;;;4249321;27;20051;-73
2021/07/08 08:01:53;;;;;;;10.70;3.05;;;22.50;86.30;;;;;;4249549;27;19926;-72
2021/07/08 08:03:57;;;;;;;8.45;3.08;;;22.60;85.60;;;;;;4251245;27;20502;-74
2021/07/08 08:08:27;;;;;;;7.45;2.80;;;23.00;85.30;;;;;;4255251;27;20061;-75
2021/07/08 08:10:31;;;;;;;36.38;3.65;;;23.10;85.00;;;;;;4257000;27;20062;-73
2021/07/08 08:12:35;;;;;;;15.57;3.40;;;23.10;83.90;;;;;;4259885;27;20426;-77
2021/07/08 08:14:39;;;;;;;22.40;3.47;;;23.10;84.50;;;;;;4258433;27;20043;-76
2021/07/08 08:16:42;;;;;;;11.77;2.80;;;23.20;84.40;;;;;;4249485;27;20055;-75
2021/07/08 08:18:46;;;;;;;10.52;2.50;;;23.30;84.50;;;;;;4248317;27;20058;-74
2021/07/08 08:20:53;;;;;;;9.25;2.50;;;23.40;84.80;;;;;;4248311;27;20377;-73
2021/07/08 08:22:56;;;;;;;8.38;2.75;;;23.40;83.80;;;;;;4248951;27;20057;-75
2021/07/08 08:25:00;;;;;;;4.53;2.63;;;23.60;83.10;;;;;;4249139;27;20648;-74
2021/07/08 08:27:03;;;;;;;15.93;2.97;;;23.70;83.10;;;;;;4248767;27;20063;-72
2021/07/08 08:29:06;;;;;;;5.18;2.35;;;23.50;82.50;;;;;;4248464;27;20065;-73
2021/07/08 08:31:11;;;;;;;3.85;2.20;;;23.60;83.40;;;;;;4248254;27;20059;-74
2021/07/08 08:33:14;;;;;;;10.38;2.70;;;23.70;81.90;;;;;;4248251;27;20059;-75
2021/07/08 08:35:17;;;;;;;6.07;2.33;;;23.60;82.60;;;;;;4248860;27;20077;-77
2021/07/08 08:37:21;;;;;;;6.35;2.53;;;23.60;81.90;;;;;;4248031;27;20047;-74
2021/07/08 08:39:24;;;;;;;11.43;2.55;;;23.80;82.10;;;;;;4248224;27;20063;-75
2021/07/08 08:41:27;;;;;;;4.30;2.00;;;23.70;82.00;;;;;;4247956;27;20043;-74
2021/07/08 08:43:31;;;;;;;5.75;1.77;;;23.60;81.00;;;;;;4248194;27;20057;-74
2021/07/08 08:45:34;;;;;;;7.28;2.10;;;23.80;82.10;;;;;;4247444;27;20058;-73
2021/07/08 08:48:02;;;;;;;5.78;2.10;;;23.80;82.00;;;;;;4248160;27;20473;-73
2021/07/08 08:50:06;;;;;;;7.10;2.25;;;23.90;81.20;;;;;;4248467;27;20115;-73
2021/07/08 08:52:11;;;;;;;4.75;2.20;;;23.70;80.20;;;;;;4248530;27;20069;-73
2021/07/08 08:54:14;;;;;;;7.97;2.47;;;23.50;80.20;;;;;;4248570;27;20469;-72
2021/07/08 08:56:19;;;;;;;7.25;2.20;;;23.60;82.10;;;;;;4247778;27;20053;-73
2021/07/08 08:58:22;;;;;;;7.68;2.60;;;23.80;80.60;;;;;;4248009;27;20069;-72
2021/07/08 09:00:45;;;;;;;5.28;2.30;;;23.50;80.30;;;;;;4230281;28;20059;-72
2021/07/08 09:02:58;;;;;;;7.93;2.75;;;23.70;81.10;;;;;;4248526;27;20480;-71
2021/07/08 09:05:05;;;;;;;4.70;2.47;;;23.70;81.40;;;;;;4247959;27;20055;-70
2021/07/08 09:07:23;;;;;;;14.40;3.03;;;23.80;81.70;;;;;;4250007;27;20418;-71
2021/07/08 09:09:31;;;;;;;9.85;2.55;;;23.90;80.20;;;;;;4254035;27;20055;-71
2021/07/08 09:11:35;;;;;;;4.60;2.83;;;24.00;80.80;;;;;;4235201;27;20083;-72
2021/07/08 09:13:50;;;;;;;7.22;3.13;;;24.00;78.10;;;;;;4250994;27;20054;-72
2021/07/08 09:15:53;;;;;;;5.47;2.40;;;23.70;78.60;;;;;;4248833;27;20055;-72
2021/07/08 09:17:58;;;;;;;13.07;3.28;;;23.80;80.20;;;;;;4250835;27;20061;-72
2021/07/08 09:20:08;;;;;;;8.52;2.42;;;23.80;79.40;;;;;;4250716;27;20435;-72
2021/07/08 09:22:13;;;;;;;5.70;2.58;;;24.00;79.40;;;;;;4248573;27;20053;-73
2021/07/08 09:24:19;;;;;;;9.40;2.50;;;24.20;80.30;;;;;;4247703;27;20531;-72
2021/07/08 09:26:22;;;;;;;9.38;2.50;;;24.30;79.70;;;;;;4248800;27;20139;-71
2021/07/08 09:28:26;;;;;;;8.88;2.83;;;24.60;78.30;;;;;;4248573;27;20077;-71
2021/07/08 09:30:30;;;;;;;8.80;3.40;;;24.60;76.50;;;;;;4253423;27;20122;-72
2021/07/08 09:32:34;;;;;;;10.77;2.85;;;24.60;77.40;;;;;;4252422;27;20051;-72
2021/07/08 09:34:39;;;;;;;;;;;24.50;77.30;;;;;;4240983;27;20058;-72
2021/07/08 09:36:43;;;;;;;8.30;2.72;;;24.40;77.70;;;;;;4247925;27;19925;-74
2021/07/08 09:38:48;;;;;;;10.57;2.70;;;24.20;76.30;;;;;;4243142;27;20074;-74
2021/07/08 09:41:05;;;;;;;7.68;2.58;;;24.10;77.50;;;;;;4250035;27;20073;-73
2021/07/08 09:43:09;;;;;;;6.05;2.60;;;24.20;78.30;;;;;;4247206;27;20509;-73
2021/07/08 09:45:14;;;;;;;5.55;2.47;;;24.20;76.10;;;;;;4247301;27;20051;-75
2021/07/08 09:47:22;;;;;;;9.40;2.20;;;24.30;76.70;;;;;;4229687;28;20044;-72
2021/07/08 09:49:28;;;;;;;6.28;3.30;;;24.40;77.80;;;;;;4247634;27;20103;-72
2021/07/08 09:51:33;;;;;;;;;;;24.40;75.70;;;;;;4248348;27;20047;-72
2021/07/08 09:53:50;;;;;;;8.63;2.75;;;24.40;76.10;;;;;;4247533;27;20394;-74
2021/07/08 09:58:19;;;;;;;6.18;2.35;;;23.80;76.20;;;;;;4247383;27;20066;-71
2021/07/08 10:01:20;;;;;;;5.28;2.67;;;23.90;76.40;;;;;;4247605;27;20075;-76
2021/07/08 10:03:27;;;;;;;4.63;2.70;;;24.20;75.30;;;;;;4247005;27;20188;-73
2021/07/08 10:05:34;;;;;;;4.47;2.50;;;24.20;75.80;;;;;;4247933;27;20059;-72
2021/07/08 10:07:39;;;;;;;9.13;2.63;;;24.40;75.30;;;;;;4247783;27;20055;-73
2021/07/08 10:09:43;;;;;;;;;;;24.40;74.40;;;;;;4251205;27;20047;-73
2021/07/08 10:11:49;;;;;;;6.65;2.90;;;24.60;74.80;;;;;;4252225;27;19919;-74
2021/07/08 10:13:56;;;;;;;7.05;2.78;;;24.60;73.60;;;;;;4257111;27;20055;-71
2021/07/08 10:16:04;;;;;;;7.68;2.45;;;24.60;72.90;;;;;;4256372;27;20210;-71
2021/07/08 10:18:11;;;;;;;8.27;2.90;;;24.60;72.90;;;;;;4253099;27;20174;-74
2021/07/08 10:20:17;;;;;;;7.45;3.00;;;24.60;72.00;;;;;;4248050;27;20059;-71
2021/07/08 10:22:21;;;;;;;5.25;2.85;;;24.70;73.90;;;;;;4247180;27;20496;-72
2021/07/08 10:24:27;;;;;;;6.80;2.78;;;24.90;73.70;;;;;;4249207;27;20058;-70
2021/07/08 10:26:32;;;;;;;8.43;2.67;;;24.90;71.70;;;;;;4249305;27;20035;-74
2021/07/08 10:28:41;;;;;;;5.28;2.88;;;24.80;72.40;;;;;;4249808;27;20059;-74
2021/07/08 10:30:45;;;;;;;9.30;2.92;;;24.70;72.30;;;;;;4247128;27;20062;-74
2021/07/08 10:32:57;;;;;;;5.78;2.40;;;24.80;71.60;;;;;;4246620;27;20509;-73
2021/07/08 10:35:00;;;;;;;8.63;2.80;;;24.70;72.90;;;;;;4246247;27;20543;-74
2021/07/08 10:37:08;;;;;;;4.32;2.60;;;24.70;73.30;;;;;;4248487;27;20047;-77
2021/07/08 10:39:14;;;;;;;5.60;2.63;;;24.50;70.80;;;;;;4247035;27;20055;-73
2021/07/08 10:41:49;;;;;;;7.97;3.22;;;24.60;72.30;;;;;;4246776;27;20412;-73
2021/07/08 10:43:53;;;;;;;5.07;2.53;;;24.90;71.00;;;;;;4230761;27;20069;-73
2021/07/08 10:46:17;;;;;;;4.70;2.42;;;24.90;72.10;;;;;;4246339;27;20509;-73
2021/07/08 10:48:21;;;;;;;6.13;2.50;;;24.80;69.10;;;;;;4246567;27;20051;-75
2021/07/08 10:50:40;;;;;;;3.53;2.50;;;24.90;71.30;;;;;;4245963;27;20070;-75
2021/07/08 10:52:45;;;;;;;4.25;2.35;;;24.60;69.70;;;;;;4246450;27;20059;-73